Time;durP1;ratioP1;P1;durP2;ratioP2;P2;SDS_P1;SDS_P2;PMS_P1;PMS_P2;Temp;Humidity;BMP_temperature;BMP_pressure;BME280_temperature;BME280_humidity;BME280_pressure;Samples;Min_cycle;Max_cycle;Signal;HPM_P1;HPM_P2
2021/06/26 00:00:53;;;;;;;50.20;25.88;;;;;;;17.23;51.22;101873.50;5075808;28;20039;-69
2021/06/26 00:03:25;;;;;;;50.92;27.45;;;;;;;17.23;51.61;101876.13;5072486;28;20029;-69
2021/06/26 00:05:50;;;;;;;;;;;;;;;17.31;51.29;101866.94;5089639;28;20552;-67
2021/06/26 00:08:17;;;;;;;50.72;27.58;;;;;;;17.26;51.20;101874.28;5074388;28;19915;-68
2021/06/26 00:10:45;;;;;;;44.95;25.38;;;;;;;17.22;51.76;101873.56;5076006;28;20035;-68
2021/06/26 00:13:11;;;;;;;46.25;26.45;;;;;;;17.17;51.83;101871.16;5074137;28;20056;-71
2021/06/26 00:15:36;;;;;;;49.65;26.38;;;;;;;17.29;51.73;101869.69;5073465;28;20143;-68
2021/06/26 00:18:03;;;;;;;52.38;27.15;;;;;;;17.33;51.43;101875.66;5075082;28;20089;-67
2021/06/26 00:20:29;;;;;;;46.08;25.00;;;;;;;17.30;51.31;101871.38;5057241;28;20043;-67
2021/06/26 00:22:55;;;;;;;47.70;28.00;;;;;;;17.30;51.44;101875.81;5058708;28;20483;-69
2021/06/26 00:25:22;;;;;;;45.85;26.67;;;;;;;17.24;51.57;101877.00;5076627;28;20031;-68
2021/06/26 00:27:49;;;;;;;54.55;28.67;;;;;;;17.14;51.70;101881.91;5075017;28;20062;-68
2021/06/26 00:30:15;;;;;;;48.97;26.20;;;;;;;17.14;51.72;101881.06;5073350;28;20104;-68
2021/06/26 00:32:42;;;;;;;50.20;28.30;;;;;;;17.26;51.64;101880.41;5074408;28;20036;-67
2021/06/26 00:35:11;;;;;;;55.42;29.73;;;;;;;17.25;51.58;101889.28;5065296;28;20147;-67
2021/06/26 00:37:39;;;;;;;46.40;26.25;;;;;;;17.28;51.62;101883.81;5075116;28;20028;-67
2021/06/26 00:40:07;;;;;;;48.08;25.30;;;;;;;17.27;51.84;101876.84;5074111;28;20580;-65
2021/06/26 00:42:43;;;;;;;44.58;24.42;;;;;;;17.31;51.44;101882.81;5073229;28;20032;-67
2021/06/26 00:45:13;;;;;;;45.65;25.33;;;;;;;17.30;51.62;101881.97;5073941;28;20033;-65
2021/06/26 00:47:39;;;;;;;46.90;27.13;;;;;;;17.24;51.83;101882.28;5075549;28;20507;-66
2021/06/26 00:50:12;;;;;;;45.75;25.08;;;;;;;17.29;51.64;101882.91;5073855;28;20040;-67
2021/06/26 00:52:37;;;;;;;51.85;27.13;;;;;;;17.23;51.53;101885.84;5072177;28;20028;-67
2021/06/26 00:55:05;;;;;;;52.17;27.55;;;;;;;17.18;51.81;101882.59;5073238;28;20295;-66
2021/06/26 00:57:33;;;;;;;44.63;26.40;;;;;;;17.20;51.74;101892.16;5075102;28;20111;-66
2021/06/26 01:00:00;;;;;;;51.22;27.08;;;;;;;17.20;51.63;101891.28;5074586;28;20044;-66
2021/06/26 01:02:25;;;;;;;50.83;27.58;;;;;;;17.18;51.84;101896.66;5075822;28;20113;-66
2021/06/26 01:04:51;;;;;;;51.70;27.42;;;;;;;17.21;51.62;101890.38;5071908;28;20491;-65
2021/06/26 01:07:16;;;;;;;40.13;21.95;;;;;;;17.26;51.80;101892.78;5074313;28;20064;-66
2021/06/26 01:09:41;;;;;;;46.83;24.73;;;;;;;17.19;51.66;101889.59;5074902;28;20063;-66
2021/06/26 01:12:07;;;;;;;46.25;24.95;;;;;;;17.22;51.65;101892.06;5074529;28;20024;-66
2021/06/26 01:14:33;;;;;;;44.38;26.20;;;;;;;17.19;51.96;101895.72;5073512;28;20408;-65
2021/06/26 01:17:08;;;;;;;41.92;24.02;;;;;;;17.19;51.82;101894.88;5071556;28;20094;-68
2021/06/26 01:19:35;;;;;;;53.00;26.02;;;;;;;17.05;52.14;101887.66;5078348;28;20032;-67
2021/06/26 01:22:07;;;;;;;49.92;27.65;;;;;;;17.03;52.57;101890.38;5075601;28;20025;-65
2021/06/26 01:24:33;;;;;;;;;;;;;;;17.14;52.04;101892.47;5057740;28;20039;-63
2021/06/26 01:26:59;;;;;;;45.33;25.25;;;;;;;17.17;51.82;101891.47;5073007;28;19920;-63
2021/06/26 01:29:26;;;;;;;45.83;23.88;;;;;;;17.19;51.64;101882.50;5076270;28;20408;-63
2021/06/26 01:31:51;;;;;;;47.38;26.17;;;;;;;17.16;51.83;101882.69;5074563;28;20395;-63
2021/06/26 01:34:17;;;;;;;50.17;26.55;;;;;;;17.04;52.46;101885.94;5072008;28;20036;-65
2021/06/26 01:36:42;;;;;;;61.17;29.15;;;;;;;17.00;52.25;101887.03;5075361;28;20028;-66
2021/06/26 01:39:08;;;;;;;51.42;27.70;;;;;;;16.98;52.25;101889.78;5075027;28;20683;-66
2021/06/26 01:41:34;;;;;;;48.63;26.58;;;;;;;16.97;52.62;101889.84;5069240;28;20040;-66
2021/06/26 01:44:00;;;;;;;41.70;23.33;;;;;;;16.98;52.58;101887.13;5079163;28;20032;-66
2021/06/26 01:46:26;;;;;;;46.17;26.08;;;;;;;17.02;52.04;101877.25;5072751;28;20083;-66
2021/06/26 01:48:52;;;;;;;43.78;24.63;;;;;;;17.20;51.79;101884.25;5072709;28;20269;-65
2021/06/26 01:51:17;;;;;;;56.15;27.67;;;;;;;17.11;51.55;101882.03;5070449;28;20028;-68
2021/06/26 01:53:43;;;;;;;51.60;26.98;;;;;;;17.07;52.01;101888.44;5060786;28;20552;-66
2021/06/26 01:56:12;;;;;;;41.72;25.27;;;;;;;17.10;51.82;101884.78;5072801;28;20069;-65
2021/06/26 01:58:37;;;;;;;43.60;24.60;;;;;;;17.14;51.84;101884.56;5074251;28;20916;-67
2021/06/26 02:01:03;;;;;;;46.22;27.10;;;;;;;17.14;51.70;101881.91;5072372;28;20284;-65
2021/06/26 02:03:28;;;;;;;44.78;25.27;;;;;;;16.98;52.38;101886.28;5068343;28;20039;-66
2021/06/26 02:05:54;;;;;;;49.83;27.00;;;;;;;16.93;52.38;101883.00;5090734;28;20051;-66
2021/06/26 02:08:19;;;;;;;45.35;25.98;;;;;;;16.92;52.50;101883.94;5073408;28;20047;-67
2021/06/26 02:10:45;;;;;;;46.35;24.27;;;;;;;16.98;52.12;101886.28;5074225;28;20033;-67
2021/06/26 02:13:10;;;;;;;47.90;27.40;;;;;;;17.10;52.13;101887.44;5057132;28;20525;-66
2021/06/26 02:15:35;;;;;;;49.50;27.25;;;;;;;17.03;52.18;101889.53;5091350;22;20131;-69
2021/06/26 02:18:01;;;;;;;43.65;24.83;;;;;;;17.03;52.10;101885.09;5065403;28;20024;-69
2021/06/26 02:20:26;;;;;;;43.90;25.35;;;;;;;17.00;52.00;101890.56;5062287;28;20029;-68
2021/06/26 02:22:52;;;;;;;45.25;25.15;;;;;;;16.95;52.42;101892.56;5063289;28;20088;-68
2021/06/26 02:25:18;;;;;;;48.50;25.92;;;;;;;16.91;52.47;101879.59;5063313;28;20040;-69
2021/06/26 02:27:44;;;;;;;49.58;25.38;;;;;;;16.93;52.39;101881.22;5064217;28;20108;-69
2021/06/26 02:30:12;;;;;;;53.97;27.23;;;;;;;16.91;52.57;101876.94;5063153;28;20021;-70
2021/06/26 02:32:39;;;;;;;47.45;25.77;;;;;;;16.89;52.52;101874.41;5061384;28;20037;-69
2021/06/26 02:35:06;;;;;;;47.72;26.58;;;;;;;16.94;52.33;101880.28;5058791;28;20032;-69
2021/06/26 02:37:31;;;;;;;44.03;24.58;;;;;;;17.00;52.43;101879.09;5062834;28;20093;-69
2021/06/26 02:39:59;;;;;;;49.80;26.40;;;;;;;17.02;52.05;101887.81;5062104;28;20032;-69
2021/06/26 02:42:25;;;;;;;42.40;24.00;;;;;;;17.07;52.34;101882.28;5063655;28;20119;-67
2021/06/26 02:44:50;;;;;;;42.88;24.38;;;;;;;16.99;52.09;101886.19;5061343;28;20949;-66
2021/06/26 02:47:18;;;;;;;53.08;27.30;;;;;;;16.92;52.42;101886.59;5061042;28;20059;-66
2021/06/26 02:49:43;;;;;;;43.95;23.27;;;;;;;16.90;52.64;101893.72;5062249;28;20028;-66
2021/06/26 02:52:08;;;;;;;49.03;24.95;;;;;;;17.02;52.39;101899.25;5060946;28;20458;-66
2021/06/26 02:54:34;;;;;;;48.65;25.05;;;;;;;17.06;52.09;101886.72;5061324;28;20033;-66
2021/06/26 02:56:59;;;;;;;41.75;23.90;;;;;;;17.10;51.89;101885.63;5062375;28;20039;-67
2021/06/26 02:59:25;;;;;;;39.55;22.02;;;;;;;16.97;52.26;101885.41;5064750;28;20032;-68
2021/06/26 03:01:50;;;;;;;40.90;22.00;;;;;;;17.02;52.11;101882.53;5062121;28;20040;-67
2021/06/26 03:04:16;;;;;;;49.30;26.85;;;;;;;17.00;52.11;101885.28;5062904;28;20064;-67
2021/06/26 03:06:41;;;;;;;46.17;27.83;;;;;;;16.86;52.50;101886.91;5057937;28;20562;-68
2021/06/26 03:09:07;;;;;;;51.58;28.38;;;;;;;16.76;52.87;101886.53;5062524;28;20106;-68
2021/06/26 03:11:32;;;;;;;49.85;28.40;;;;;;;16.66;52.85;101886.06;5074127;28;20036;-67
2021/06/26 03:13:58;;;;;;;49.75;25.90;;;;;;;16.57;53.51;101897.09;5063009;28;20025;-68
2021/06/26 03:16:23;;;;;;;47.17;24.23;;;;;;;16.62;53.52;101895.06;5063159;28;20734;-68
2021/06/26 03:18:49;;;;;;;43.53;25.90;;;;;;;16.79;53.16;101900.41;5062014;28;20109;-68
2021/06/26 03:21:14;;;;;;;43.72;24.70;;;;;;;16.86;52.91;101897.47;5063616;28;20040;-68
2021/06/26 03:23:40;;;;;;;48.13;26.30;;;;;;;16.92;52.68;101897.16;5061435;28;20131;-67
2021/06/26 03:26:06;;;;;;;40.58;22.58;;;;;;;16.93;52.75;101893.56;5063622;28;20033;-68
2021/06/26 03:28:33;;;;;;;40.80;22.52;;;;;;;16.95;52.74;101907.56;5074482;28;20063;-69
2021/06/26 03:30:59;;;;;;;46.67;24.58;;;;;;;17.09;52.22;101905.06;5062658;28;20036;-68
2021/06/26 03:33:25;;;;;;;47.72;26.45;;;;;;;17.06;52.07;101901.72;5061107;28;20057;-69
2021/06/26 03:35:56;;;;;;;47.78;23.83;;;;;;;16.99;52.31;101901.19;5059890;28;20282;-68
2021/06/26 03:38:22;;;;;;;45.35;25.90;;;;;;;16.93;52.61;101898.84;5062232;28;20117;-69
2021/06/26 03:40:49;;;;;;;45.45;25.85;;;;;;;16.98;52.77;101902.13;5061464;28;20040;-71
2021/06/26 03:43:14;;;;;;;45.05;26.60;;;;;;;17.00;52.63;101894.97;5060522;28;20135;-69
2021/06/26 03:45:40;;;;;;;44.17;23.98;;;;;;;17.10;52.46;101896.19;5061203;28;20083;-69
2021/06/26 03:48:05;;;;;;;48.38;26.17;;;;;;;17.11;52.24;101891.75;5060724;28;20056;-69
2021/06/26 03:50:33;;;;;;;41.95;23.42;;;;;;;17.14;52.47;101891.63;5061364;28;20045;-70
2021/06/26 03:52:59;;;;;;;41.97;24.65;;;;;;;17.13;52.49;101888.09;5060155;28;20105;-69
2021/06/26 03:55:24;;;;;;;49.10;25.88;;;;;;;17.08;52.77;101887.50;5062506;28;20039;-68
2021/06/26 03:57:50;;;;;;;51.42;25.80;;;;;;;17.11;53.36;101895.25;5061733;28;20068;-67
2021/06/26 04:00:18;;;;;;;54.80;26.70;;;;;;;17.13;52.63;101889.91;5060642;28;20082;-68
2021/06/26 04:02:43;;;;;;;47.05;24.20;;;;;;;17.12;53.36;101889.06;5060835;28;20116;-68
2021/06/26 04:05:09;;;;;;;45.50;25.58;;;;;;;17.16;53.21;101892.41;5064119;28;20040;-68
2021/06/26 04:07:35;;;;;;;51.38;28.38;;;;;;;17.12;52.89;101894.34;5064885;28;20086;-69
2021/06/26 04:10:00;;;;;;;46.10;24.95;;;;;;;17.22;52.78;101894.72;5061162;28;20417;-68
2021/06/26 04:12:25;;;;;;;53.88;27.48;;;;;;;17.29;52.72;101896.13;5062982;28;20544;-69
2021/06/26 04:14:51;;;;;;;47.00;25.63;;;;;;;17.12;52.77;101893.50;5060995;28;20071;-67
2021/06/26 04:17:16;;;;;;;54.97;27.92;;;;;;;17.03;53.13;101902.75;5060603;28;20031;-66
2021/06/26 04:19:42;;;;;;;51.60;26.48;;;;;;;16.92;53.48;101905.06;5061243;28;20041;-66
2021/06/26 04:22:07;;;;;;;45.72;25.70;;;;;;;16.94;53.60;101900.56;5058838;28;20048;-65
2021/06/26 04:24:33;;;;;;;44.90;22.85;;;;;;;17.00;54.05;101897.59;5061416;28;20040;-66
2021/06/26 04:27:01;;;;;;;39.65;23.67;;;;;;;17.21;53.72;101899.13;5059712;28;20037;-66
2021/06/26 04:29:26;;;;;;;46.47;23.90;;;;;;;17.36;53.58;101896.66;5062308;28;20051;-66
2021/06/26 04:31:52;;;;;;;47.05;25.17;;;;;;;17.50;53.26;101903.88;5062256;28;20028;-66
2021/06/26 04:34:18;;;;;;;44.00;23.35;;;;;;;17.58;52.46;101905.19;5061218;28;20694;-66
2021/06/26 04:36:45;;;;;;;44.88;26.35;;;;;;;17.50;52.31;101915.28;5061016;28;20178;-70
2021/06/26 04:39:10;;;;;;;45.20;24.38;;;;;;;17.42;52.57;101917.44;5062877;28;20119;-72
2021/06/26 04:41:36;;;;;;;48.92;24.80;;;;;;;17.46;52.36;101919.00;5060623;28;20043;-71
2021/06/26 04:44:03;;;;;;;44.50;24.27;;;;;;;17.48;52.56;101918.97;5061387;28;20033;-71
2021/06/26 04:46:29;;;;;;;47.67;24.15;;;;;;;17.59;52.15;101924.53;5063690;28;20057;-71
2021/06/26 04:48:57;;;;;;;46.00;23.25;;;;;;;17.54;52.18;101921.28;5065391;28;20120;-68
2021/06/26 04:51:23;;;;;;;37.35;21.70;;;;;;;17.65;52.44;101924.19;5056535;28;20029;-68
2021/06/26 04:53:51;;;;;;;43.25;24.83;;;;;;;17.60;51.83;101927.09;5060936;28;20024;-67
2021/06/26 04:56:17;;;;;;;52.58;26.95;;;;;;;17.34;51.96;101931.06;5063454;28;20103;-67
2021/06/26 04:58:44;;;;;;;45.38;23.48;;;;;;;17.60;52.24;101932.38;5061824;28;20107;-67
2021/06/26 05:01:10;;;;;;;52.17;25.95;;;;;;;17.78;51.75;101922.59;5072651;28;20040;-68
2021/06/26 05:03:35;;;;;;;49.65;25.67;;;;;;;17.97;51.17;101924.25;5061100;28;20033;-68
2021/06/26 05:06:01;;;;;;;42.58;23.05;;;;;;;18.11;51.25;101929.59;5062293;28;20051;-68
2021/06/26 05:08:27;;;;;;;44.13;24.10;;;;;;;18.12;49.89;101933.09;5063847;28;20033;-68
2021/06/26 05:10:52;;;;;;;44.53;24.80;;;;;;;18.23;50.54;101936.91;5064758;28;20025;-67
2021/06/26 05:13:18;;;;;;;47.55;25.35;;;;;;;18.42;49.88;101933.22;5060063;28;20512;-68
2021/06/26 05:15:44;;;;;;;46.80;26.23;;;;;;;18.39;50.04;101934.25;5063159;28;20553;-67
2021/06/26 05:18:10;;;;;;;48.50;26.25;;;;;;;18.35;50.36;101945.94;5063013;28;20035;-68
2021/06/26 05:20:37;;;;;;;50.85;27.38;;;;;;;18.37;49.44;101943.22;5065250;28;20029;-70
2021/06/26 05:23:22;;;;;;;51.15;26.92;;;;;;;18.53;49.92;101943.22;5062224;28;20040;-70
2021/06/26 05:25:48;;;;;;;46.80;24.90;;;;;;;18.67;49.28;101938.81;5061288;28;20453;-66
2021/06/26 05:28:14;;;;;;;50.10;26.80;;;;;;;18.78;48.63;101943.50;5062875;28;20055;-68
2021/06/26 05:30:40;;;;;;;44.55;26.13;;;;;;;19.03;47.62;101948.25;5063725;28;20059;-68
2021/06/26 05:33:05;;;;;;;50.58;27.35;;;;;;;19.18;46.56;101950.94;5062436;28;20052;-66
2021/06/26 05:35:31;;;;;;;48.22;26.33;;;;;;;19.36;47.03;101943.66;5061660;28;20028;-66
2021/06/26 05:37:57;;;;;;;47.50;26.77;;;;;;;19.62;45.69;101944.75;5059712;28;20582;-68
2021/06/26 05:40:23;;;;;;;45.75;24.85;;;;;;;20.23;43.84;101946.22;5061216;28;20036;-68
2021/06/26 05:42:48;;;;;;;44.63;25.77;;;;;;;20.82;43.04;101929.09;5054832;28;20400;-65
2021/06/26 05:45:14;;;;;;;43.28;25.08;;;;;;;20.61;42.03;101947.34;5063596;28;20587;-66
2021/06/26 05:47:39;;;;;;;44.83;25.83;;;;;;;20.44;43.73;101938.69;5063663;28;20659;-67
2021/06/26 05:50:05;;;;;;;35.03;20.63;;;;;;;20.59;42.17;101938.59;5063778;28;20071;-67
2021/06/26 05:52:31;;;;;;;38.92;22.10;;;;;;;20.94;41.54;101937.13;5064259;28;20064;-68
2021/06/26 05:54:56;;;;;;;43.72;23.92;;;;;;;21.08;41.55;101938.84;5065206;28;20458;-69
2021/06/26 05:57:23;;;;;;;36.63;21.25;;;;;;;21.06;41.42;101935.44;5073446;28;20036;-66
2021/06/26 05:59:49;;;;;;;35.22;21.00;;;;;;;20.88;40.65;101936.69;5063076;28;20039;-67
2021/06/26 06:02:15;;;;;;;38.08;22.65;;;;;;;20.43;41.93;101939.63;5065067;28;20043;-68
2021/06/26 06:04:41;;;;;;;36.63;19.65;;;;;;;20.81;42.01;101941.53;5063397;28;20115;-69
2021/06/26 06:07:09;;;;;;;37.65;21.83;;;;;;;21.00;41.99;101942.97;5064223;28;20037;-67
2021/06/26 06:09:35;;;;;;;36.92;20.50;;;;;;;21.08;40.29;101938.84;5062997;28;20110;-68
2021/06/26 06:12:00;;;;;;;38.70;21.30;;;;;;;21.12;40.01;101950.13;5064113;28;20579;-70
2021/06/26 06:14:26;;;;;;;36.17;21.80;;;;;;;21.25;39.04;101951.00;5064824;28;20079;-67
2021/06/26 06:16:52;;;;;;;37.95;23.20;;;;;;;21.32;39.67;101952.28;5059071;28;20651;-67
2021/06/26 06:19:17;;;;;;;40.80;25.10;;;;;;;21.16;39.89;101954.28;5060300;28;20055;-67
2021/06/26 06:21:43;;;;;;;34.10;21.83;;;;;;;21.35;38.69;101960.06;5059965;28;20527;-67
2021/06/26 06:24:08;;;;;;;37.40;21.83;;;;;;;21.55;39.55;101968.47;5060895;28;20032;-68
2021/06/26 06:26:36;;;;;;;37.08;21.65;;;;;;;22.04;38.56;101970.31;5058291;28;20044;-67
2021/06/26 06:29:02;;;;;;;41.47;22.35;;;;;;;22.16;38.68;101974.81;5062009;28;20497;-66
2021/06/26 06:31:27;;;;;;;36.10;23.10;;;;;;;22.24;37.90;101976.06;5061281;28;20039;-66
2021/06/26 06:33:53;;;;;;;37.75;23.80;;;;;;;22.72;36.90;101976.09;5059849;28;20081;-65
2021/06/26 06:36:18;;;;;;;39.92;23.88;;;;;;;22.83;37.17;101973.47;5059695;28;20047;-66
2021/06/26 06:38:44;;;;;;;41.22;21.80;;;;;;;22.99;36.59;101973.16;5061883;28;20033;-66
2021/06/26 06:41:10;;;;;;;38.00;22.75;;;;;;;23.37;35.33;101972.06;5062841;28;20032;-67
2021/06/26 06:43:35;;;;;;;35.75;21.35;;;;;;;22.99;36.89;101979.34;5058518;28;20122;-67
2021/06/26 06:46:03;;;;;;;34.72;20.88;;;;;;;22.75;37.28;101981.19;5061450;28;20036;-66
2021/06/26 06:48:29;;;;;;;35.63;22.25;;;;;;;22.48;37.99;101990.25;5057200;28;20740;-68
2021/06/26 06:50:55;;;;;;;37.42;23.77;;;;;;;22.56;36.86;101979.00;5062860;28;20028;-67
2021/06/26 06:53:21;;;;;;;38.42;24.35;;;;;;;21.71;38.25;101984.22;5064616;28;20039;-66
2021/06/26 06:55:52;;;;;;;41.95;24.70;;;;;;;21.90;39.16;101983.78;5043762;28;20033;-67
2021/06/26 06:58:18;;;;;;;39.05;23.80;;;;;;;23.08;37.04;101982.28;5059106;28;20043;-67
2021/06/26 07:00:44;;;;;;;33.03;21.67;;;;;;;24.30;33.85;101992.31;5051675;28;20508;-68
2021/06/26 07:03:10;;;;;;;36.67;23.52;;;;;;;24.17;34.25;101989.81;5059636;28;20029;-66
2021/06/26 07:05:35;;;;;;;40.95;24.45;;;;;;;23.73;34.67;101986.16;5060480;28;20067;-67
2021/06/26 07:08:01;;;;;;;41.63;25.58;;;;;;;23.98;34.09;101987.75;5058866;28;20036;-67
2021/06/26 07:10:29;;;;;;;36.13;22.17;;;;;;;25.06;32.38;101985.13;5060625;28;20066;-66
2021/06/26 07:12:55;;;;;;;31.25;20.45;;;;;;;25.47;31.72;101978.91;5057877;28;20040;-68
2021/06/26 07:15:22;;;;;;;39.88;25.25;;;;;;;24.87;31.30;101979.63;5059744;28;20093;-68
2021/06/26 07:17:48;;;;;;;44.55;26.85;;;;;;;23.89;33.65;101977.81;5059414;28;20028;-68
2021/06/26 07:20:14;;;;;;;43.42;26.20;;;;;;;22.79;35.96;101980.00;5060269;28;20063;-68
2021/06/26 07:22:40;;;;;;;44.08;26.58;;;;;;;22.39;37.00;101982.91;5057859;28;20040;-67
2021/06/26 07:25:06;;;;;;;39.45;25.33;;;;;;;22.20;37.98;101985.22;5058490;28;20042;-66
2021/06/26 07:27:31;;;;;;;38.45;27.15;;;;;;;21.83;38.25;101985.16;5056986;28;20124;-67
2021/06/26 07:29:59;;;;;;;43.72;26.75;;;;;;;21.44;37.89;101986.94;5059258;28;20520;-67
2021/06/26 07:32:25;;;;;;;45.70;26.30;;;;;;;21.20;39.19;101987.69;5060434;28;20024;-66
2021/06/26 07:34:50;;;;;;;39.15;25.60;;;;;;;20.85;39.08;101985.59;5060154;28;20512;-67
2021/06/26 07:37:16;;;;;;;38.70;23.10;;;;;;;21.04;40.32;101981.69;5060798;28;20088;-65
2021/06/26 07:39:42;;;;;;;38.83;25.75;;;;;;;21.51;39.33;101981.16;5058236;28;20086;-66
2021/06/26 07:42:08;;;;;;;37.15;25.25;;;;;;;21.45;39.78;101984.19;5056616;28;20063;-67
2021/06/26 07:44:33;;;;;;;39.70;24.88;;;;;;;21.68;39.81;101979.09;5056537;28;20040;-65
2021/06/26 07:46:59;;;;;;;36.38;23.33;;;;;;;21.63;39.85;101978.59;5064229;28;20179;-66
2021/06/26 07:49:24;;;;;;;34.92;21.65;;;;;;;21.69;39.55;101980.78;5062541;28;20109;-66
2021/06/26 07:51:50;;;;;;;42.00;24.00;;;;;;;21.61;40.08;101980.50;5041829;28;20306;-66
2021/06/26 07:54:18;;;;;;;46.42;27.20;;;;;;;21.44;39.53;101976.31;5058437;28;20044;-69
2021/06/26 07:56:45;;;;;;;43.58;24.48;;;;;;;21.21;40.60;101977.91;5055179;28;20107;-66
2021/06/26 07:59:11;;;;;;;37.03;24.52;;;;;;;20.97;40.65;101978.59;5059713;28;20725;-66
2021/06/26 08:01:37;;;;;;;40.28;25.23;;;;;;;20.76;40.86;101980.84;5057836;28;20489;-66
2021/06/26 08:04:04;;;;;;;35.53;23.42;;;;;;;20.51;41.77;101979.81;5058460;28;20077;-66
2021/06/26 08:06:30;;;;;;;51.08;26.90;;;;;;;20.59;40.99;101979.28;5056389;28;20037;-67
2021/06/26 08:08:56;;;;;;;45.75;25.52;;;;;;;20.31;41.94;101974.94;5060653;28;20043;-66
2021/06/26 08:11:21;;;;;;;38.20;24.42;;;;;;;20.04;42.77;101986.31;5060705;28;20043;-69
2021/06/26 08:13:48;;;;;;;37.20;22.55;;;;;;;20.10;42.58;101978.00;5060234;28;20075;-67
2021/06/26 08:16:13;;;;;;;41.15;23.98;;;;;;;20.09;42.58;101986.03;5060354;28;20086;-65
2021/06/26 08:18:39;;;;;;;38.42;24.77;;;;;;;20.06;43.03;101979.13;5056142;28;20036;-65
2021/06/26 08:21:05;;;;;;;45.65;26.33;;;;;;;20.10;42.09;101987.72;5061045;28;20473;-65
2021/06/26 08:23:30;;;;;;;41.65;24.55;;;;;;;19.98;42.90;101984.06;5062184;28;20044;-65
2021/06/26 08:25:56;;;;;;;46.03;26.45;;;;;;;19.95;42.10;101989.56;5061934;28;20035;-66
2021/06/26 08:28:22;;;;;;;82.72;26.25;;;;;;;20.06;42.73;101996.81;5063505;28;20040;-65
2021/06/26 08:30:50;;;;;;;85.47;24.63;;;;;;;20.17;42.86;101999.66;5061406;28;20056;-66
2021/06/26 08:33:15;;;;;;;54.05;26.50;;;;;;;20.06;42.80;101992.41;5063044;28;20056;-66
2021/06/26 08:35:41;;;;;;;49.30;22.65;;;;;;;20.15;42.44;101990.97;5061478;28;20111;-66
2021/06/26 08:38:07;;;;;;;45.00;23.80;;;;;;;20.33;41.29;101983.66;5063040;28;20025;-66
2021/06/26 08:40:33;;;;;;;45.58;25.63;;;;;;;20.27;41.32;101992.00;5061752;28;20612;-66
2021/06/26 08:42:58;;;;;;;35.47;23.38;;;;;;;20.17;42.14;101982.88;5072336;28;20111;-65
2021/06/26 08:45:24;;;;;;;41.15;23.98;;;;;;;20.11;42.06;101990.28;5062102;28;20453;-66
2021/06/26 08:47:51;;;;;;;219.23;40.00;;;;;;;20.02;43.07;101985.56;5062651;28;20028;-66
2021/06/26 08:50:18;;;;;;;40.17;24.63;;;;;;;19.99;43.07;101983.09;5061202;28;20107;-65
2021/06/26 08:52:44;;;;;;;41.67;23.02;;;;;;;20.37;41.82;101984.28;5063901;28;20036;-67
2021/06/26 08:55:13;;;;;;;37.95;23.55;;;;;;;20.36;42.15;101987.91;5064094;28;20396;-65
2021/06/26 08:57:40;;;;;;;39.22;23.42;;;;;;;20.48;42.40;101982.63;5058829;28;20025;-66
2021/06/26 09:00:09;;;;;;;40.80;25.42;;;;;;;20.53;41.78;101983.22;5061295;28;20075;-66
2021/06/26 09:02:35;;;;;;;40.70;24.50;;;;;;;20.60;41.26;101990.78;5058698;28;20506;-66
2021/06/26 09:05:03;;;;;;;34.63;22.55;;;;;;;21.15;40.49;101989.78;5060892;28;20112;-67
2021/06/26 09:07:35;;;;;;;46.80;23.80;;;;;;;21.34;40.03;101982.28;5059917;28;20067;-66
2021/06/26 09:10:12;;;;;;;;;;;;;;;21.74;39.77;101984.84;5059545;28;20051;-66
2021/06/26 09:12:39;;;;;;;42.78;23.75;;;;;;;21.94;39.09;101985.25;5058668;28;20011;-67
2021/06/26 09:15:07;;;;;;;45.53;24.58;;;;;;;21.96;38.21;101983.34;5056165;28;20076;-66
2021/06/26 09:17:33;;;;;;;36.80;22.98;;;;;;;21.90;38.15;101983.78;5057526;28;20029;-66
2021/06/26 09:20:05;;;;;;;76.07;26.58;;;;;;;22.00;38.28;101979.47;5061424;28;20511;-66
2021/06/26 09:22:39;;;;;;;38.03;22.70;;;;;;;21.86;38.22;101982.28;5059775;28;20036;-66
2021/06/26 09:25:20;;;;;;;38.97;23.27;;;;;;;21.87;38.67;101986.63;5054082;28;20158;-66
2021/06/26 09:27:46;;;;;;;37.65;22.70;;;;;;;21.72;39.23;101981.44;5055936;28;20583;-67
2021/06/26 09:30:12;;;;;;;32.75;20.85;;;;;;;22.03;38.23;101992.59;5069017;22;20041;-91
2021/06/26 09:32:44;;;;;;;36.35;23.52;;;;;;;22.10;37.76;101985.88;5030736;28;20045;-92
2021/06/26 09:35:16;;;;;;;44.60;24.38;;;;;;;22.22;38.12;101988.63;5032274;28;20102;-90
2021/06/26 09:37:42;;;;;;;36.42;22.58;;;;;;;22.50;38.11;101987.47;5057412;28;20033;-91
2021/06/26 09:40:11;;;;;;;35.55;22.17;;;;;;;22.60;35.82;101988.47;5058458;28;20109;-90
2021/06/26 09:42:46;;;;;;;38.38;22.33;;;;;;;22.87;37.40;101990.91;5025497;28;20458;-90
2021/06/26 09:45:14;;;;;;;34.90;21.75;;;;;;;23.76;35.02;101983.25;5024170;28;20029;-92
2021/06/26 09:47:44;;;;;;;32.55;20.65;;;;;;;24.13;34.06;101988.34;5040600;28;20037;-91
2021/06/26 09:50:22;;;;;;;41.28;22.75;;;;;;;24.37;34.05;101988.16;5047844;28;20250;-92
2021/06/26 09:53:05;;;;;;;31.67;19.88;;;;;;;24.48;35.77;101990.84;5059039;28;20029;-91
2021/06/26 09:55:37;;;;;;;33.42;20.98;;;;;;;24.56;33.87;101984.88;5025214;28;20037;-91
2021/06/26 09:58:12;;;;;;;38.75;23.58;;;;;;;24.41;34.08;101987.84;5027977;28;20021;-91
2021/06/26 10:00:43;;;;;;;30.33;20.63;;;;;;;24.55;33.70;101994.72;5038877;28;20100;-92
2021/06/26 10:03:10;;;;;;;35.55;20.98;;;;;;;24.16;35.33;101994.28;5037023;28;20029;-91
2021/06/26 10:05:37;;;;;;;35.75;20.98;;;;;;;23.59;36.13;101997.94;5035106;28;20037;-93
2021/06/26 10:08:04;;;;;;;34.00;19.65;;;;;;;23.11;37.33;101995.38;5035119;28;20033;-92
2021/06/26 10:10:31;;;;;;;36.33;19.50;;;;;;;22.50;38.61;101990.13;5027570;28;20029;-91
2021/06/26 10:12:57;;;;;;;34.15;20.30;;;;;;;22.58;38.87;101991.28;5028611;28;20038;-90
2021/06/26 10:15:26;;;;;;;35.15;20.70;;;;;;;22.20;39.08;101990.53;5034033;28;20035;-91
2021/06/26 10:17:58;;;;;;;36.15;21.23;;;;;;;21.62;39.81;101993.69;5027894;28;20096;-94
2021/06/26 10:20:25;;;;;;;35.25;19.92;;;;;;;21.40;40.93;102002.28;5044796;28;20064;-91
2021/06/26 10:22:59;;;;;;;29.08;19.73;;;;;;;21.10;41.13;101997.22;5019267;28;20019;-92
2021/06/26 10:25:33;;;;;;;31.90;18.90;;;;;;;20.85;41.30;101996.22;5042833;28;20041;-90
2021/06/26 10:28:05;;;;;;;28.60;17.88;;;;;;;21.31;40.92;101998.44;5039197;28;20630;-91
2021/06/26 10:30:31;;;;;;;29.23;18.42;;;;;;;21.26;40.96;102005.00;5052562;28;20033;-92
2021/06/26 10:33:01;;;;;;;29.88;18.35;;;;;;;21.21;40.68;102008.00;5025637;28;20047;-91
2021/06/26 10:35:30;;;;;;;34.30;19.07;;;;;;;21.12;40.39;102004.13;5038517;28;20120;-90
2021/06/26 10:38:02;;;;;;;37.60;21.27;;;;;;;20.65;42.17;102000.16;5035840;28;20036;-91
2021/06/26 10:40:38;;;;;;;32.95;19.98;;;;;;;20.56;42.38;102006.06;5028563;28;20054;-90
2021/06/26 10:43:16;;;;;;;36.42;20.65;;;;;;;20.48;42.20;102003.88;5017013;28;20045;-92
2021/06/26 10:45:42;;;;;;;37.03;21.55;;;;;;;20.77;41.77;102002.94;5020994;28;20046;-92
2021/06/26 10:48:23;;;;;;;37.70;20.88;;;;;;;20.85;41.85;102001.53;5038289;28;20029;-92
2021/06/26 10:50:54;;;;;;;33.75;18.95;;;;;;;21.27;41.07;101996.09;5035371;28;20033;-93
2021/06/26 10:53:27;;;;;;;39.58;24.08;;;;;;;21.42;40.65;101999.50;5038488;28;20028;-93
2021/06/26 10:56:10;;;;;;;35.03;20.75;;;;;;;21.48;40.81;102004.44;5019840;28;20028;-91
2021/06/26 10:58:44;;;;;;;35.92;21.70;;;;;;;21.97;39.74;102001.00;5033958;28;20037;-90
2021/06/26 11:01:23;;;;;;;35.20;22.95;;;;;;;21.63;40.11;102003.38;5038094;28;20033;-90
2021/06/26 11:04:11;;;;;;;34.85;21.42;;;;;;;22.01;39.50;102002.50;5039483;28;20100;-90
2021/06/26 11:06:40;;;;;;;33.50;20.45;;;;;;;22.66;38.41;101997.84;5031996;28;20029;-91
2021/06/26 11:09:08;;;;;;;33.08;19.55;;;;;;;23.61;37.64;102001.31;5036110;28;20395;-93